createdAt,value
2022-11-18T00:00:51.343Z,93624.69
2022-11-18T00:03:17.969Z,93620.66
2022-11-18T00:05:55.779Z,93621.88
2022-11-18T00:08:23.421Z,93618.06
2022-11-18T00:10:50.277Z,93611.22
2022-11-18T00:13:36.516Z,93606.13
2022-11-18T00:16:09.175Z,93610.56
2022-11-18T00:18:36.106Z,93596.44
2022-11-18T00:21:04.405Z,93593.41
2022-11-18T00:23:30.998Z,93602.09
2022-11-18T00:26:06.202Z,93594.63
2022-11-18T00:28:33.238Z,93594.25
2022-11-18T00:31:08.760Z,93586.38
2022-11-18T00:33:36.920Z,93590.81
2022-11-18T00:36:09.523Z,93583.31
2022-11-18T00:38:36.309Z,93575.84
2022-11-18T00:41:15.156Z,93582.34
2022-11-18T00:43:42.315Z,93580.91
2022-11-18T00:46:11.991Z,93572.44
2022-11-18T00:48:39.573Z,93572.88
2022-11-18T00:51:08.417Z,93574.09
2022-11-18T00:53:35.049Z,93569.22
2022-11-18T00:56:01.662Z,93570.44
2022-11-18T00:58:28.214Z,93570.03
2022-11-18T01:00:54.963Z,93572.66
2022-11-18T01:03:21.691Z,93575.69
2022-11-18T01:05:48.850Z,93567.78
2022-11-18T01:08:15.427Z,93565.13
2022-11-18T01:10:42.006Z,93570.00
2022-11-18T01:13:19.296Z,93569.59
2022-11-18T01:15:48.767Z,93559.09
2022-11-18T01:18:16.442Z,93559.31
2022-11-18T01:20:43.794Z,93563.91
2022-11-18T01:23:10.359Z,93552.22
2022-11-18T01:25:38.264Z,93551.41
2022-11-18T01:28:05.438Z,93553.63
2022-11-18T01:30:36.531Z,93545.53
2022-11-18T01:33:04.278Z,93536.84
2022-11-18T01:35:38.411Z,93538.50
2022-11-18T01:38:05.986Z,93532.03
2022-11-18T01:40:33.385Z,93527.78
2022-11-18T01:43:00.049Z,93518.69
2022-11-18T01:45:35.698Z,93541.31
2022-11-18T01:48:05.520Z,93542.72
2022-11-18T01:50:34.655Z,93555.28
2022-11-18T01:53:08.524Z,93554.06
2022-11-18T01:55:37.989Z,93564.53
2022-11-18T01:58:12.335Z,93565.97
2022-11-18T02:00:39.903Z,93567.78
2022-11-18T02:03:07.222Z,93573.41
2022-11-18T02:05:35.587Z,93571.00
2022-11-18T02:08:03.435Z,93575.44
2022-11-18T02:10:30.035Z,93571.19
2022-11-18T02:12:58.848Z,93566.94
2022-11-18T02:15:51.540Z,93567.53
2022-11-18T02:18:41.787Z,93559.47
2022-11-18T02:21:17.411Z,93555.03
2022-11-18T02:24:20.922Z,93562.72
2022-11-18T02:27:19.462Z,93557.06
2022-11-18T02:30:01.647Z,93554.25
2022-11-18T02:33:14.390Z,93556.66
2022-11-18T02:35:54.116Z,93555.84
2022-11-18T02:38:34.472Z,93561.50
2022-11-18T02:41:12.405Z,93556.66
2022-11-18T02:43:45.980Z,93559.88
2022-11-18T02:46:17.420Z,93547.56
2022-11-18T02:48:48.534Z,93552.41
2022-11-18T02:51:19.866Z,93561.09
2022-11-18T02:53:48.646Z,93555.25
2022-11-18T02:56:17.120Z,93553.44
2022-11-18T02:58:44.254Z,93551.44
2022-11-18T03:01:24.760Z,93553.25
2022-11-18T03:03:51.354Z,93545.56
2022-11-18T03:06:40.382Z,93561.38
2022-11-18T03:09:17.649Z,93554.91
2022-11-18T03:12:15.704Z,93558.53
2022-11-18T03:14:56.170Z,93555.94
2022-11-18T03:17:30.986Z,93549.47
2022-11-18T03:20:09.644Z,93550.28
2022-11-18T03:22:36.165Z,93550.25
2022-11-18T03:25:07.556Z,93554.91
2022-11-18T03:27:55.743Z,93555.94
2022-11-18T03:30:24.556Z,93569.81
2022-11-18T03:32:57.840Z,93568.19
2022-11-18T03:35:28.802Z,93577.25
2022-11-18T03:38:01.574Z,93574.44
2022-11-18T03:40:32.387Z,93587.66
2022-11-18T03:43:21.368Z,93589.94
2022-11-18T03:45:52.545Z,93592.88
2022-11-18T03:48:43.459Z,93598.31
2022-11-18T03:51:15.445Z,93605.13
2022-11-18T03:53:47.194Z,93614.06
2022-11-18T03:56:20.190Z,93622.63
2022-11-18T03:59:12.888Z,93619.69
2022-11-18T04:02:03.990Z,93622.22
2022-11-18T04:04:30.753Z,93621.34
2022-11-18T04:07:16.761Z,93618.44
2022-11-18T04:09:54.501Z,93627.47
2022-11-18T04:12:21.477Z,93613.97
2022-11-18T04:14:52.214Z,93609.72
2022-11-18T04:17:26.415Z,93616.19
2022-11-18T04:19:52.997Z,93618.09
2022-11-18T04:22:20.168Z,93620.56
2022-11-18T04:24:46.768Z,93614.38
2022-11-18T04:27:13.462Z,93614.59
2022-11-18T04:29:40.014Z,93617.81
2022-11-18T04:32:06.956Z,93619.81
2022-11-18T04:34:33.599Z,93613.97
2022-11-18T04:37:00.252Z,93611.75
2022-11-18T04:39:26.793Z,93622.91
2022-11-18T04:41:56.164Z,93605.31
2022-11-18T04:44:30.895Z,93605.94
2022-11-18T04:46:59.557Z,93603.31
2022-11-18T04:49:27.628Z,93607.16
2022-11-18T04:51:54.786Z,93615.22
2022-11-18T04:54:21.867Z,93614.00
2022-11-18T04:56:49.854Z,93603.53
2022-11-18T04:59:20.451Z,93604.94
2022-11-18T05:01:48.190Z,93604.53
2022-11-18T05:04:16.812Z,93604.94
2022-11-18T05:06:43.436Z,93607.16
2022-11-18T05:09:10.844Z,93606.78
2022-11-18T05:11:56.480Z,93606.16
2022-11-18T05:14:25.905Z,93603.13
2022-11-18T05:16:52.547Z,93610.75
2022-11-18T05:19:19.427Z,93603.66
2022-11-18T05:21:46.193Z,93609.56
2022-11-18T05:24:12.710Z,93601.50
2022-11-18T05:26:39.234Z,93597.69
2022-11-18T05:29:05.815Z,93601.31
2022-11-18T05:31:32.562Z,93603.06
2022-11-18T05:33:59.558Z,93601.47
2022-11-18T05:36:26.401Z,93601.72
2022-11-18T05:38:53.014Z,93602.28
2022-11-18T05:41:42.773Z,93613.38
2022-11-18T05:44:09.353Z,93616.22
2022-11-18T05:46:35.929Z,93618.25
2022-11-18T05:49:02.526Z,93615.47
2022-11-18T05:51:29.082Z,93615.59
2022-11-18T05:53:56.160Z,93617.00
2022-11-18T05:56:40.116Z,93621.25
2022-11-18T05:59:07.166Z,93627.09
2022-11-18T06:01:40.802Z,93635.69
2022-11-18T06:04:33.741Z,93626.81
2022-11-18T06:07:25.754Z,93643.16
2022-11-18T06:09:57.928Z,93641.84
2022-11-18T06:12:32.020Z,93653.41
2022-11-18T06:15:05.494Z,93642.91
2022-11-18T06:17:42.498Z,93647.38
2022-11-18T06:20:10.319Z,93647.34
2022-11-18T06:22:38.995Z,93651.69
2022-11-18T06:25:08.918Z,93650.31
2022-11-18T06:27:35.665Z,93660.19
2022-11-18T06:30:02.395Z,93663.19
2022-11-18T06:32:29.006Z,93665.81
2022-11-18T06:34:55.610Z,93675.56
2022-11-18T06:37:22.156Z,93683.31
2022-11-18T06:39:48.796Z,93688.88
2022-11-18T06:42:35.582Z,93684.88
2022-11-18T06:45:03.530Z,93682.22
2022-11-18T06:47:30.186Z,93689.09
2022-11-18T06:49:56.783Z,93700.59
2022-11-18T06:52:23.911Z,93705.88
2022-11-18T06:54:50.424Z,93706.03
2022-11-18T06:57:17.037Z,93706.66
2022-11-18T06:59:43.622Z,93706.31
2022-11-18T07:02:10.232Z,93703.88
2022-11-18T07:04:39.584Z,93718.22
2022-11-18T07:07:07.171Z,93706.50
2022-11-18T07:09:34.998Z,93712.13
2022-11-18T07:12:02.184Z,93711.53
2022-11-18T07:14:28.902Z,93720.59
2022-11-18T07:16:55.491Z,93718.16
2022-11-18T07:19:22.143Z,93725.69
2022-11-18T07:21:48.912Z,93726.09
2022-11-18T07:24:16.230Z,93730.50
2022-11-18T07:26:43.331Z,93733.13
2022-11-18T07:29:10.763Z,93743.63
2022-11-18T07:31:39.007Z,93744.84
2022-11-18T07:34:06.704Z,93749.28
2022-11-18T07:36:35.902Z,93741.22
2022-11-18T07:39:05.344Z,93756.53
2022-11-18T07:41:32.662Z,93754.16
2022-11-18T07:44:01.507Z,93746.91
2022-11-18T07:46:28.390Z,93757.31
2022-11-18T07:48:57.279Z,93754.31
2022-11-18T07:51:26.563Z,93762.34
2022-11-18T07:53:53.263Z,93768.50
2022-11-18T07:56:20.752Z,93767.09
2022-11-18T07:58:48.201Z,93760.78
2022-11-18T08:01:17.632Z,93763.06
2022-11-18T08:03:44.945Z,93765.69
2022-11-18T08:06:13.437Z,93775.06
2022-11-18T08:08:40.358Z,93780.75
2022-11-18T08:11:10.035Z,93778.59
2022-11-18T08:13:36.983Z,93780.22
2022-11-18T08:16:04.870Z,93779.81
2022-11-18T08:18:32.786Z,93779.59
2022-11-18T08:21:03.898Z,93783.44
2022-11-18T08:23:33.965Z,93785.63
2022-11-18T08:26:11.729Z,93787.22
2022-11-18T08:28:38.603Z,93797.78
2022-11-18T08:31:19.503Z,93799.94
2022-11-18T08:33:46.529Z,93797.78
2022-11-18T08:36:16.793Z,93801.47
2022-11-18T08:38:44.185Z,93804.66
2022-11-18T08:41:15.630Z,93803.75
2022-11-18T08:43:42.686Z,93802.38
2022-11-18T08:46:09.292Z,93802.94
2022-11-18T08:48:36.361Z,93811.13
2022-11-18T08:51:03.640Z,93812.66
2022-11-18T08:53:30.614Z,93811.84
2022-11-18T08:55:58.322Z,93822.13
2022-11-18T08:58:25.743Z,93823.72
2022-11-18T09:00:52.649Z,93826.59
2022-11-18T09:03:19.952Z,93820.66
2022-11-18T09:05:46.605Z,93815.25
2022-11-18T09:08:13.371Z,93827.72
2022-11-18T09:10:39.917Z,93823.06
2022-11-18T09:13:33.789Z,93812.97
2022-11-18T09:15:53.101Z,93820.00
2022-11-18T09:18:19.667Z,93825.25
2022-11-18T09:20:55.551Z,93827.88
2022-11-18T09:23:22.515Z,93840.06
2022-11-18T09:25:49.229Z,93833.59
2022-11-18T09:28:15.910Z,93844.69
2022-11-18T09:30:42.686Z,93848.91
2022-11-18T09:33:09.229Z,93848.97
2022-11-18T09:35:35.784Z,93858.28
2022-11-18T09:38:02.293Z,93854.09
2022-11-18T09:40:28.995Z,93859.50
2022-11-18T09:43:19.525Z,93863.81
2022-11-18T09:45:51.700Z,93853.31
2022-11-18T09:48:41.912Z,93861.22
2022-11-18T09:51:11.416Z,93854.13
2022-11-18T09:53:41.327Z,93868.72
2022-11-18T09:56:14.918Z,93868.44
2022-11-18T09:58:42.881Z,93865.69
2022-11-18T10:01:17.794Z,93861.13
2022-11-18T10:03:44.401Z,93865.69
2022-11-18T10:06:27.656Z,93883.84
2022-11-18T10:09:33.280Z,93879.63
2022-11-18T10:12:29.241Z,93881.47
2022-11-18T10:15:20.440Z,93879.53
2022-11-18T10:17:50.566Z,93880.13
2022-11-18T10:20:36.742Z,93888.25
2022-11-18T10:23:09.369Z,93892.69
2022-11-18T10:25:35.908Z,93889.47
2022-11-18T10:28:29.296Z,93885.66
2022-11-18T10:31:11.038Z,93880.44
2022-11-18T10:33:38.625Z,93870.38
2022-11-18T10:36:17.005Z,93872.69
2022-11-18T10:38:49.535Z,93875.41
2022-11-18T10:41:20.460Z,93877.97
2022-11-18T10:43:57.396Z,93881.63
2022-11-18T10:46:28.350Z,93872.31
2022-11-18T10:49:10.315Z,93886.09
2022-11-18T10:51:45.343Z,93878.00
2022-11-18T10:54:16.840Z,93865.25
2022-11-18T10:56:49.499Z,93884.88
2022-11-18T10:59:26.978Z,93891.97
2022-11-18T11:02:15.337Z,93897.38
2022-11-18T11:04:43.123Z,93907.53
2022-11-18T11:07:26.876Z,93887.66
2022-11-18T11:10:13.713Z,93884.56
2022-11-18T11:12:48.067Z,93879.06
2022-11-18T11:15:18.279Z,93880.03
2022-11-18T11:18:24.872Z,93878.97
2022-11-18T11:20:52.602Z,93877.78
2022-11-18T11:23:23.734Z,93871.94
2022-11-18T11:29:08.907Z,93880.66
2022-11-18T11:31:55.349Z,93884.06
2022-11-18T11:34:40.862Z,93885.00
2022-11-18T11:37:31.666Z,93889.25
2022-11-18T11:40:08.797Z,93895.13
2022-11-18T11:42:50.586Z,93898.97
2022-11-18T11:45:20.084Z,93905.88
2022-11-18T11:48:14.191Z,93900.56
2022-11-18T11:51:03.027Z,93901.31
2022-11-18T11:54:02.848Z,93904.75
2022-11-18T11:56:42.304Z,93907.34
2022-11-18T11:59:16.636Z,93899.69
2022-11-18T12:02:01.960Z,93903.84
2022-11-18T12:04:41.202Z,93905.53
2022-11-18T12:07:16.980Z,93903.41
2022-11-18T12:10:05.938Z,93914.50
2022-11-18T12:12:47.970Z,93911.06
2022-11-18T12:15:44.748Z,93911.75
2022-11-18T12:18:32.956Z,93917.06
2022-11-18T12:20:59.495Z,93920.78
2022-11-18T12:23:30.902Z,93917.13
2022-11-18T12:25:58.905Z,93925.06
2022-11-18T12:28:31.450Z,93920.16
2022-11-18T12:31:16.208Z,93920.97
2022-11-18T12:33:54.467Z,93932.09
2022-11-18T12:36:39.364Z,93925.09
2022-11-18T12:39:33.165Z,93934.06
2022-11-18T12:42:20.323Z,93938.19
2022-11-18T12:44:52.232Z,93949.34
2022-11-18T12:47:41.719Z,93945.09
2022-11-18T12:50:14.640Z,93951.66
2022-11-18T12:52:41.084Z,93961.94
2022-11-18T12:55:21.883Z,93958.22
2022-11-18T12:57:48.406Z,93956.56
2022-11-18T13:00:23.815Z,93963.47
2022-11-18T13:02:56.328Z,93962.59
2022-11-18T13:05:28.870Z,93954.41
2022-11-18T13:08:15.683Z,93964.75
2022-11-18T13:10:55.849Z,93961.03
2022-11-18T13:13:32.725Z,93965.66
2022-11-18T13:16:37.835Z,93975.09
2022-11-18T13:19:05.012Z,93969.91
2022-11-18T13:21:50.185Z,93965.31
2022-11-18T13:24:19.577Z,93978.34
2022-11-18T13:26:47.600Z,93974.88
2022-11-18T13:29:15.184Z,93979.84
2022-11-18T13:32:18.521Z,93972.13
2022-11-18T13:34:52.381Z,93972.66
2022-11-18T13:37:21.496Z,93982.25
2022-11-18T13:39:49.242Z,93980.75
2022-11-18T13:42:27.703Z,93975.16
2022-11-18T13:44:57.260Z,93975.72
2022-11-18T13:47:47.793Z,93977.84
2022-11-18T13:50:18.352Z,93976.69
2022-11-18T13:53:07.881Z,93982.31
2022-11-18T13:55:39.935Z,93978.56
2022-11-18T13:58:40.221Z,93978.72
2022-11-18T14:01:23.368Z,93978.44
2022-11-18T14:03:53.938Z,93980.53
2022-11-18T14:06:24.544Z,93980.38
2022-11-18T14:08:52.852Z,93979.81
2022-11-18T14:11:37.794Z,93983.38
2022-11-18T14:14:04.976Z,93991.09
2022-11-18T14:16:40.360Z,93984.75
2022-11-18T14:19:07.687Z,93990.81
2022-11-18T14:21:38.201Z,93985.19
2022-11-18T14:24:05.711Z,93999.13
2022-11-18T14:26:38.090Z,93984.38
2022-11-18T14:29:23.203Z,93992.66
2022-11-18T14:32:11.745Z,93998.91
2022-11-18T14:34:38.288Z,93994.31
2022-11-18T14:37:12.332Z,94001.31
2022-11-18T14:39:39.731Z,94003.94
2022-11-18T14:42:06.721Z,93999.97
2022-11-18T14:44:33.214Z,94003.88
2022-11-18T14:47:02.517Z,94007.91
2022-11-18T14:49:31.554Z,94017.16
2022-11-18T14:52:02.511Z,94026.63
2022-11-18T14:54:29.672Z,94027.94
2022-11-18T14:57:01.376Z,94046.44
2022-11-18T14:59:27.931Z,94042.44
2022-11-18T15:01:56.268Z,94048.25
2022-11-18T15:04:23.118Z,94055.75
2022-11-18T15:06:49.617Z,94059.47
2022-11-18T15:09:16.538Z,94063.78
2022-11-18T15:11:43.134Z,94070.13
2022-11-18T15:14:09.674Z,94072.81
2022-11-18T15:16:36.432Z,94063.41
2022-11-18T15:19:05.153Z,94062.09
2022-11-18T15:21:33.164Z,94069.03
2022-11-18T15:23:59.836Z,94069.84
2022-11-18T15:26:27.565Z,94066.97
2022-11-18T15:28:56.651Z,94069.00
2022-11-18T15:31:24.439Z,94067.09
2022-11-18T15:33:51.510Z,94070.09
2022-11-18T15:36:23.520Z,94076.47
2022-11-18T15:38:50.930Z,94074.75
2022-11-18T15:41:22.905Z,94080.25
2022-11-18T15:43:50.052Z,94075.03
2022-11-18T15:46:21.475Z,94075.03
2022-11-18T15:48:50.971Z,94076.22
2022-11-18T15:51:17.728Z,94082.78
2022-11-18T15:53:44.327Z,94075.66
2022-11-18T15:56:22.981Z,94082.53
2022-11-18T15:59:14.964Z,94084.00
2022-11-18T16:01:44.082Z,94088.38
2022-11-18T16:04:13.104Z,94088.13
2022-11-18T16:06:39.842Z,94088.25
2022-11-18T16:09:06.915Z,94086.81
2022-11-18T16:11:52.331Z,94091.50
2022-11-18T16:14:20.976Z,94091.44
2022-11-18T16:16:49.682Z,94092.50
2022-11-18T16:19:22.180Z,94099.41
2022-11-18T16:21:51.265Z,94095.81
2022-11-18T16:24:23.415Z,94092.56
2022-11-18T16:26:50.176Z,94097.06
2022-11-18T16:29:18.403Z,94099.03
2022-11-18T16:31:54.041Z,94108.19
2022-11-18T16:34:29.742Z,94114.03
2022-11-18T16:37:00.651Z,94114.34
2022-11-18T16:39:28.457Z,94114.97
2022-11-18T16:42:06.848Z,94122.66
2022-11-18T16:44:34.825Z,94128.25
2022-11-18T16:47:01.457Z,94122.84
2022-11-18T16:49:28.070Z,94128.91
2022-11-18T16:51:56.105Z,94134.00
2022-11-18T16:54:27.777Z,94138.06
2022-11-18T16:56:56.396Z,94139.91
2022-11-18T16:59:29.164Z,94143.91
2022-11-18T17:01:57.439Z,94140.31
2022-11-18T17:04:25.796Z,94146.16
2022-11-18T17:06:52.742Z,94146.53
2022-11-18T17:09:22.453Z,94145.56
2022-11-18T17:11:50.459Z,94143.97
2022-11-18T17:14:17.282Z,94154.66
2022-11-18T17:16:43.875Z,94157.66
2022-11-18T17:19:15.468Z,94156.69
2022-11-18T17:21:42.811Z,94155.97
2022-11-18T17:24:10.564Z,94153.94
2022-11-18T17:26:37.113Z,94163.38
2022-11-18T17:29:03.683Z,94161.94
2022-11-18T17:31:30.223Z,94159.19
2022-11-18T17:33:56.855Z,94160.97
2022-11-18T17:36:25.653Z,94174.13
2022-11-18T17:38:55.444Z,94173.16
2022-11-18T17:41:43.248Z,94170.19
2022-11-18T17:44:12.514Z,94177.78
2022-11-18T17:46:39.683Z,94173.78
2022-11-18T17:49:23.481Z,94173.88
2022-11-18T17:51:53.396Z,94182.53
2022-11-18T17:54:21.126Z,94182.00
2022-11-18T17:56:48.317Z,94182.91
2022-11-18T17:59:17.056Z,94179.06
2022-11-18T18:01:44.740Z,94184.16
2022-11-18T18:04:12.000Z,94193.03
2022-11-18T18:06:38.570Z,94193.88
2022-11-18T18:09:05.240Z,94193.88
2022-11-18T18:11:31.744Z,94195.59
2022-11-18T18:14:13.535Z,94191.81
2022-11-18T18:16:45.864Z,94198.13
2022-11-18T18:19:17.921Z,94202.13
2022-11-18T18:21:45.461Z,94209.06
2022-11-18T18:24:14.612Z,94208.78
2022-11-18T18:26:41.124Z,94207.09
2022-11-18T18:29:07.752Z,94210.25
2022-11-18T18:31:36.091Z,94206.72
2022-11-18T18:34:03.549Z,94211.69
2022-11-18T18:36:30.205Z,94217.84
2022-11-18T18:38:58.412Z,94217.56
2022-11-18T18:41:24.939Z,94218.94
2022-11-18T18:43:51.597Z,94227.94
2022-11-18T18:46:31.357Z,94217.72
2022-11-18T18:48:59.589Z,94225.31
2022-11-18T18:51:27.693Z,94228.56
2022-11-18T18:53:58.659Z,94226.59
2022-11-18T18:56:25.609Z,94226.03
2022-11-18T18:58:52.132Z,94234.91
2022-11-18T19:01:19.623Z,94239.44
2022-11-18T19:03:46.905Z,94245.38
2022-11-18T19:09:08.850Z,94244.63
2022-11-18T19:11:55.293Z,94239.59
2022-11-18T19:14:23.120Z,94248.16
2022-11-18T19:16:50.379Z,94241.31
2022-11-18T19:19:39.583Z,94250.03
2022-11-18T19:22:06.732Z,94244.53
2022-11-18T19:24:48.790Z,94240.22
2022-11-18T19:27:17.243Z,94246.38
2022-11-18T19:29:44.156Z,94248.13
2022-11-18T19:32:10.702Z,94248.97
2022-11-18T19:34:37.233Z,94250.97
2022-11-18T19:37:03.779Z,94245.53
2022-11-18T19:39:30.351Z,94263.78
2022-11-18T19:41:56.873Z,94259.97
2022-11-18T19:44:23.455Z,94256.63
2022-11-18T19:46:50.051Z,94260.53
2022-11-18T19:49:17.205Z,94255.44
2022-11-18T19:51:43.919Z,94253.00
2022-11-18T19:54:10.513Z,94245.75
2022-11-18T19:56:37.028Z,94251.31
2022-11-18T19:59:03.552Z,94252.06
2022-11-18T20:01:31.916Z,94254.63
2022-11-18T20:04:02.810Z,94259.53
2022-11-18T20:06:29.447Z,94247.91
2022-11-18T20:08:56.856Z,94247.41
2022-11-18T20:11:23.971Z,94245.31
2022-11-18T20:13:50.888Z,94243.06
2022-11-18T20:16:20.556Z,94258.16
2022-11-18T20:18:48.714Z,94261.94
2022-11-18T20:21:20.320Z,94261.06
2022-11-18T20:23:48.422Z,94264.22
2022-11-18T20:26:17.638Z,94263.34
2022-11-18T20:28:46.131Z,94271.00
2022-11-18T20:31:15.711Z,94270.91
2022-11-18T20:33:48.336Z,94269.75
2022-11-18T20:36:21.137Z,94272.47
2022-11-18T20:38:53.325Z,94277.09
2022-11-18T20:41:21.008Z,94284.75
2022-11-18T20:43:48.073Z,94277.00
2022-11-18T20:46:21.030Z,94285.78
2022-11-18T20:48:49.094Z,94294.53
2022-11-18T20:51:18.772Z,94286.16
2022-11-18T20:53:45.485Z,94290.22
2022-11-18T20:56:14.680Z,94294.69
2022-11-18T20:58:41.719Z,94288.09
2022-11-18T21:01:10.762Z,94286.16
2022-11-18T21:03:38.362Z,94280.16
2022-11-18T21:06:13.939Z,94290.81
2022-11-18T21:08:41.877Z,94281.66
2022-11-18T21:11:10.702Z,94284.81
2022-11-18T21:13:56.319Z,94291.25
2022-11-18T21:16:23.482Z,94298.09
2022-11-18T21:18:50.012Z,94306.28
2022-11-18T21:21:35.057Z,94314.22
2022-11-18T21:24:02.607Z,94316.47
2022-11-18T21:26:31.744Z,94313.72
2022-11-18T21:29:00.559Z,94317.59
2022-11-18T21:31:27.993Z,94321.41
2022-11-18T21:33:55.050Z,94313.91
2022-11-18T21:36:22.569Z,94322.50
2022-11-18T21:38:49.161Z,94319.34
2022-11-18T21:41:15.897Z,94324.69
2022-11-18T21:44:04.576Z,94323.25
2022-11-18T21:46:30.346Z,94325.53
2022-11-18T21:49:00.153Z,94335.41
2022-11-18T21:51:27.523Z,94332.41
2022-11-18T21:53:54.281Z,94330.13
2022-11-18T21:56:23.319Z,94329.19
2022-11-18T21:58:50.163Z,94336.16
2022-11-18T22:01:25.709Z,94342.44
2022-11-18T22:03:55.711Z,94341.25
2022-11-18T22:06:24.400Z,94336.38
2022-11-18T22:08:52.078Z,94342.81
2022-11-18T22:11:20.261Z,94338.41
2022-11-18T22:13:46.790Z,94338.72
2022-11-18T22:16:15.887Z,94342.38
2022-11-18T22:18:53.063Z,94344.25
2022-11-18T22:21:23.017Z,94345.09
2022-11-18T22:23:49.727Z,94335.53
2022-11-18T22:26:18.940Z,94340.34
2022-11-18T22:28:46.794Z,94346.16
2022-11-18T22:31:20.393Z,94340.81
2022-11-18T22:33:47.781Z,94340.41
2022-11-18T22:36:16.092Z,94334.91
2022-11-18T22:38:43.827Z,94333.09
2022-11-18T22:41:31.867Z,94340.41
2022-11-18T22:44:01.458Z,94342.63
2022-11-18T22:46:32.307Z,94340.50
2022-11-18T22:48:59.715Z,94340.69
2022-11-18T22:51:26.688Z,94341.88
2022-11-18T22:54:09.707Z,94336.97
2022-11-18T22:56:39.845Z,94350.19
2022-11-18T22:59:06.369Z,94347.94
2022-11-18T23:01:32.937Z,94347.66
2022-11-18T23:03:59.462Z,94345.91
2022-11-18T23:06:25.984Z,94350.63
2022-11-18T23:08:52.473Z,94348.63
2022-11-18T23:11:38.601Z,94343.03
2022-11-18T23:14:07.423Z,94350.00
2022-11-18T23:16:37.254Z,94344.59
2022-11-18T23:19:08.829Z,94348.75
2022-11-18T23:21:35.572Z,94342.84
2022-11-18T23:24:02.439Z,94348.56
2022-11-18T23:26:29.316Z,94345.88
2022-11-18T23:28:56.221Z,94341.47
2022-11-18T23:31:24.966Z,94337.41
2022-11-18T23:33:52.896Z,94344.22
2022-11-18T23:36:20.005Z,94336.00
2022-11-18T23:38:47.640Z,94350.66
2022-11-18T23:41:16.080Z,94343.22
2022-11-18T23:43:43.059Z,94342.97
2022-11-18T23:46:10.020Z,94347.25
2022-11-18T23:48:38.923Z,94346.25
2022-11-18T23:51:07.800Z,94344.47
2022-11-18T23:53:35.394Z,94340.78
2022-11-18T23:56:13.375Z,94344.81
2022-11-18T23:58:41.440Z,94351.03
